GCTS/TFS METAR and TAF weather

Enter ICAO airport designator
Station Type Date Time Source
GCTS METAR 2021/07/24 19:30 UTC NOAA

GCTS 241930Z 08012KT CAVOK 25/18 Q1015 WS R07 NOSIG


Station Type Date Time Source
GCTS Decoded METAR 2021/07/24 19:30 UTC NOAA

Tenerife Sur, Spain (GCTS) 28-03N 016-34W 77M
Jul 24, 2021 - 03:30 PM EDT / 2021.07.24 1930 UTC
Wind: from the E (080 degrees) at 14 MPH (12 KT):0
Visibility: greater than 7 mile(s):0
Temperature: 77 F (25 C)
Dew Point: 64 F (18 C)
Relative Humidity: 65%
Pressure (altimeter): 29.97 in. Hg (1015 hPa)
ob: GCTS 241930Z 08012KT CAVOK 25/18 Q1015 WS R07 NOSIG
cycle: 19

Station Type Date Time Source
GCTS TAF 2021/07/24 15:27 UTC NOAA

TAF GCTS 241400Z 2415/2515 08020KT 9999 FEW020 TX30/2514Z TN21/2506Z
BECMG 2420/2422 05010KT
TEMPO 2500/2506 32005KT
BECMG 2508/2510 09020KT

Example: see airport list